sensor_id;sensor_type;location;lat;lon;timestamp;P1;durP1;ratioP1;P2;durP2;ratioP2
58338;SDS011;68636;52.704;6.536;2023-06-01T00:01:11;18.53;;;7.03;;
58338;SDS011;68636;52.704;6.536;2023-06-01T00:03:38;16.42;;;4.93;;
58338;SDS011;68636;52.704;6.536;2023-06-01T00:06:05;18.35;;;5.90;;
58338;SDS011;68636;52.704;6.536;2023-06-01T00:08:31;19.60;;;6.53;;
58338;SDS011;68636;52.704;6.536;2023-06-01T00:10:57;17.02;;;5.85;;
58338;SDS011;68636;52.704;6.536;2023-06-01T00:13:24;13.88;;;5.35;;
58338;SDS011;68636;52.704;6.536;2023-06-01T00:15:50;14.48;;;4.95;;
58338;SDS011;68636;52.704;6.536;2023-06-01T00:18:16;18.20;;;5.67;;
58338;SDS011;68636;52.704;6.536;2023-06-01T00:20:42;17.20;;;5.63;;
58338;SDS011;68636;52.704;6.536;2023-06-01T00:23:09;15.32;;;4.47;;
58338;SDS011;68636;52.704;6.536;2023-06-01T00:25:35;10.38;;;4.60;;
58338;SDS011;68636;52.704;6.536;2023-06-01T00:28:01;15.20;;;5.22;;
58338;SDS011;68636;52.704;6.536;2023-06-01T00:30:27;16.80;;;4.07;;
58338;SDS011;68636;52.704;6.536;2023-06-01T00:32:53;14.02;;;4.55;;
58338;SDS011;68636;52.704;6.536;2023-06-01T00:35:19;14.85;;;4.25;;
58338;SDS011;68636;52.704;6.536;2023-06-01T00:37:45;18.60;;;4.85;;
58338;SDS011;68636;52.704;6.536;2023-06-01T00:40:11;17.80;;;4.97;;
58338;SDS011;68636;52.704;6.536;2023-06-01T00:42:36;17.40;;;5.40;;
58338;SDS011;68636;52.704;6.536;2023-06-01T00:45:02;14.85;;;5.05;;
58338;SDS011;68636;52.704;6.536;2023-06-01T00:47:29;17.05;;;6.57;;
58338;SDS011;68636;52.704;6.536;2023-06-01T00:49:58;19.33;;;4.40;;
58338;SDS011;68636;52.704;6.536;2023-06-01T00:52:23;16.73;;;5.30;;
58338;SDS011;68636;52.704;6.536;2023-06-01T00:54:49;16.33;;;4.57;;
58338;SDS011;68636;52.704;6.536;2023-06-01T00:57:15;17.63;;;4.07;;
58338;SDS011;68636;52.704;6.536;2023-06-01T00:59:41;14.80;;;4.22;;
58338;SDS011;68636;52.704;6.536;2023-06-01T01:02:07;14.23;;;5.60;;
58338;SDS011;68636;52.704;6.536;2023-06-01T01:04:33;19.45;;;4.43;;
58338;SDS011;68636;52.704;6.536;2023-06-01T01:07:06;12.48;;;4.35;;
58338;SDS011;68636;52.704;6.536;2023-06-01T01:18:39;14.43;;;4.38;;
58338;SDS011;68636;52.704;6.536;2023-06-01T01:21:07;15.55;;;4.13;;
58338;SDS011;68636;52.704;6.536;2023-06-01T01:26:51;18.98;;;5.00;;
58338;SDS011;68636;52.704;6.536;2023-06-01T01:29:26;18.33;;;4.40;;
58338;SDS011;68636;52.704;6.536;2023-06-01T01:31:56;14.57;;;4.55;;
58338;SDS011;68636;52.704;6.536;2023-06-01T01:34:25;12.90;;;4.40;;
58338;SDS011;68636;52.704;6.536;2023-06-01T01:36:54;15.55;;;4.40;;
58338;SDS011;68636;52.704;6.536;2023-06-01T01:39:20;13.02;;;5.03;;
58338;SDS011;68636;52.704;6.536;2023-06-01T01:41:46;17.92;;;5.40;;
58338;SDS011;68636;52.704;6.536;2023-06-01T01:44:12;14.70;;;5.28;;
58338;SDS011;68636;52.704;6.536;2023-06-01T01:50:03;14.75;;;4.57;;
58338;SDS011;68636;52.704;6.536;2023-06-01T01:52:41;14.70;;;4.70;;
58338;SDS011;68636;52.704;6.536;2023-06-01T01:55:08;20.67;;;5.20;;
58338;SDS011;68636;52.704;6.536;2023-06-01T01:57:34;15.68;;;4.38;;
58338;SDS011;68636;52.704;6.536;2023-06-01T02:00:01;12.32;;;4.45;;
58338;SDS011;68636;52.704;6.536;2023-06-01T02:02:30;19.48;;;5.60;;
58338;SDS011;68636;52.704;6.536;2023-06-01T02:04:56;13.68;;;4.95;;
58338;SDS011;68636;52.704;6.536;2023-06-01T02:07:21;15.20;;;4.40;;
58338;SDS011;68636;52.704;6.536;2023-06-01T02:09:47;17.38;;;5.57;;
58338;SDS011;68636;52.704;6.536;2023-06-01T02:12:13;17.85;;;4.70;;
58338;SDS011;68636;52.704;6.536;2023-06-01T02:14:39;16.85;;;5.35;;
58338;SDS011;68636;52.704;6.536;2023-06-01T02:17:05;14.88;;;5.03;;
58338;SDS011;68636;52.704;6.536;2023-06-01T02:19:32;14.88;;;4.20;;
58338;SDS011;68636;52.704;6.536;2023-06-01T02:21:58;15.23;;;4.13;;
58338;SDS011;68636;52.704;6.536;2023-06-01T02:24:24;15.60;;;5.53;;
58338;SDS011;68636;52.704;6.536;2023-06-01T02:26:50;16.88;;;5.25;;
58338;SDS011;68636;52.704;6.536;2023-06-01T02:29:19;15.82;;;5.60;;
58338;SDS011;68636;52.704;6.536;2023-06-01T02:31:48;16.92;;;4.32;;
58338;SDS011;68636;52.704;6.536;2023-06-01T02:36:41;14.97;;;4.03;;
58338;SDS011;68636;52.704;6.536;2023-06-01T02:39:08;12.80;;;3.67;;
58338;SDS011;68636;52.704;6.536;2023-06-01T02:41:34;14.18;;;5.10;;
58338;SDS011;68636;52.704;6.536;2023-06-01T02:44:00;16.95;;;5.63;;
58338;SDS011;68636;52.704;6.536;2023-06-01T02:46:26;14.38;;;4.82;;
58338;SDS011;68636;52.704;6.536;2023-06-01T02:48:54;13.32;;;4.40;;
58338;SDS011;68636;52.704;6.536;2023-06-01T02:51:20;11.63;;;4.07;;
58338;SDS011;68636;52.704;6.536;2023-06-01T02:53:45;15.73;;;4.53;;
58338;SDS011;68636;52.704;6.536;2023-06-01T02:56:11;11.85;;;4.32;;
58338;SDS011;68636;52.704;6.536;2023-06-01T02:58:38;12.10;;;4.00;;
58338;SDS011;68636;52.704;6.536;2023-06-01T03:01:04;18.02;;;4.43;;
58338;SDS011;68636;52.704;6.536;2023-06-01T03:03:30;14.98;;;4.10;;
58338;SDS011;68636;52.704;6.536;2023-06-01T03:05:55;16.38;;;4.18;;
58338;SDS011;68636;52.704;6.536;2023-06-01T03:08:22;16.50;;;4.60;;
58338;SDS011;68636;52.704;6.536;2023-06-01T03:10:51;14.15;;;4.43;;
58338;SDS011;68636;52.704;6.536;2023-06-01T03:13:17;15.63;;;5.05;;
58338;SDS011;68636;52.704;6.536;2023-06-01T03:15:43;15.07;;;4.20;;
58338;SDS011;68636;52.704;6.536;2023-06-01T03:18:09;14.15;;;4.43;;
58338;SDS011;68636;52.704;6.536;2023-06-01T03:20:34;20.08;;;5.22;;
58338;SDS011;68636;52.704;6.536;2023-06-01T03:23:00;16.35;;;4.18;;
58338;SDS011;68636;52.704;6.536;2023-06-01T03:25:26;14.20;;;3.70;;
58338;SDS011;68636;52.704;6.536;2023-06-01T03:27:52;15.88;;;5.53;;
58338;SDS011;68636;52.704;6.536;2023-06-01T03:30:18;12.95;;;4.38;;
58338;SDS011;68636;52.704;6.536;2023-06-01T03:32:44;14.32;;;4.35;;
58338;SDS011;68636;52.704;6.536;2023-06-01T03:35:13;14.85;;;4.70;;
58338;SDS011;68636;52.704;6.536;2023-06-01T03:37:41;16.75;;;5.75;;
58338;SDS011;68636;52.704;6.536;2023-06-01T03:40:08;21.83;;;5.82;;
58338;SDS011;68636;52.704;6.536;2023-06-01T03:42:41;15.70;;;4.20;;
58338;SDS011;68636;52.704;6.536;2023-06-01T03:45:08;14.80;;;4.93;;
58338;SDS011;68636;52.704;6.536;2023-06-01T03:47:34;15.68;;;4.68;;
58338;SDS011;68636;52.704;6.536;2023-06-01T03:50:01;16.17;;;4.95;;
58338;SDS011;68636;52.704;6.536;2023-06-01T03:52:28;14.80;;;4.43;;
58338;SDS011;68636;52.704;6.536;2023-06-01T03:54:54;15.55;;;4.50;;
58338;SDS011;68636;52.704;6.536;2023-06-01T03:57:24;13.63;;;4.82;;
58338;SDS011;68636;52.704;6.536;2023-06-01T03:59:49;13.85;;;4.57;;
58338;SDS011;68636;52.704;6.536;2023-06-01T04:02:16;18.30;;;4.80;;
58338;SDS011;68636;52.704;6.536;2023-06-01T04:07:11;13.80;;;4.80;;
58338;SDS011;68636;52.704;6.536;2023-06-01T04:09:43;13.73;;;4.82;;
58338;SDS011;68636;52.704;6.536;2023-06-01T04:12:09;14.60;;;4.22;;
58338;SDS011;68636;52.704;6.536;2023-06-01T04:14:38;14.52;;;4.70;;
58338;SDS011;68636;52.704;6.536;2023-06-01T04:17:04;12.60;;;4.22;;
58338;SDS011;68636;52.704;6.536;2023-06-01T04:19:31;13.07;;;4.80;;
58338;SDS011;68636;52.704;6.536;2023-06-01T04:22:00;18.65;;;4.50;;
58338;SDS011;68636;52.704;6.536;2023-06-01T04:24:26;16.52;;;4.93;;
58338;SDS011;68636;52.704;6.536;2023-06-01T04:26:52;11.85;;;3.72;;
58338;SDS011;68636;52.704;6.536;2023-06-01T04:29:17;13.98;;;4.35;;
58338;SDS011;68636;52.704;6.536;2023-06-01T04:31:46;13.13;;;3.83;;
58338;SDS011;68636;52.704;6.536;2023-06-01T04:34:12;17.58;;;3.78;;
58338;SDS011;68636;52.704;6.536;2023-06-01T04:36:37;12.98;;;3.45;;
58338;SDS011;68636;52.704;6.536;2023-06-01T04:39:04;11.32;;;3.08;;
58338;SDS011;68636;52.704;6.536;2023-06-01T04:41:32;13.02;;;3.90;;
58338;SDS011;68636;52.704;6.536;2023-06-01T04:44:00;8.60;;;3.05;;
58338;SDS011;68636;52.704;6.536;2023-06-01T04:46:30;10.73;;;3.05;;
58338;SDS011;68636;52.704;6.536;2023-06-01T04:48:56;12.45;;;3.85;;
58338;SDS011;68636;52.704;6.536;2023-06-01T04:51:24;14.38;;;3.20;;
58338;SDS011;68636;52.704;6.536;2023-06-01T04:53:52;9.73;;;2.75;;
58338;SDS011;68636;52.704;6.536;2023-06-01T04:58:45;9.40;;;2.83;;
58338;SDS011;68636;52.704;6.536;2023-06-01T05:01:13;9.73;;;3.10;;
58338;SDS011;68636;52.704;6.536;2023-06-01T05:03:41;13.23;;;3.65;;
58338;SDS011;68636;52.704;6.536;2023-06-01T05:06:09;10.23;;;3.65;;
58338;SDS011;68636;52.704;6.536;2023-06-01T05:08:36;11.40;;;3.53;;
58338;SDS011;68636;52.704;6.536;2023-06-01T05:11:02;11.57;;;3.45;;
58338;SDS011;68636;52.704;6.536;2023-06-01T05:13:28;9.88;;;3.33;;
58338;SDS011;68636;52.704;6.536;2023-06-01T05:15:54;15.35;;;3.63;;
58338;SDS011;68636;52.704;6.536;2023-06-01T05:18:20;11.35;;;3.38;;
58338;SDS011;68636;52.704;6.536;2023-06-01T05:20:46;11.23;;;3.60;;
58338;SDS011;68636;52.704;6.536;2023-06-01T05:23:11;14.13;;;2.95;;
58338;SDS011;68636;52.704;6.536;2023-06-01T05:25:37;12.00;;;3.58;;
58338;SDS011;68636;52.704;6.536;2023-06-01T05:28:03;11.73;;;3.92;;
58338;SDS011;68636;52.704;6.536;2023-06-01T05:30:29;12.43;;;5.00;;
58338;SDS011;68636;52.704;6.536;2023-06-01T05:32:55;14.23;;;4.90;;
58338;SDS011;68636;52.704;6.536;2023-06-01T05:35:21;15.90;;;4.07;;
58338;SDS011;68636;52.704;6.536;2023-06-01T05:37:46;10.93;;;3.95;;
58338;SDS011;68636;52.704;6.536;2023-06-01T05:40:12;12.20;;;4.22;;
58338;SDS011;68636;52.704;6.536;2023-06-01T05:42:38;12.65;;;3.42;;
58338;SDS011;68636;52.704;6.536;2023-06-01T05:45:04;12.52;;;3.67;;
58338;SDS011;68636;52.704;6.536;2023-06-01T05:47:30;12.27;;;3.40;;
58338;SDS011;68636;52.704;6.536;2023-06-01T05:49:56;13.73;;;4.85;;
58338;SDS011;68636;52.704;6.536;2023-06-01T05:52:22;13.85;;;4.75;;
58338;SDS011;68636;52.704;6.536;2023-06-01T05:54:48;13.85;;;4.05;;
58338;SDS011;68636;52.704;6.536;2023-06-01T05:57:15;11.18;;;3.88;;
58338;SDS011;68636;52.704;6.536;2023-06-01T05:59:41;11.10;;;3.55;;
58338;SDS011;68636;52.704;6.536;2023-06-01T06:02:07;18.27;;;4.82;;
58338;SDS011;68636;52.704;6.536;2023-06-01T06:04:33;14.02;;;3.72;;
58338;SDS011;68636;52.704;6.536;2023-06-01T06:06:59;14.73;;;3.88;;
58338;SDS011;68636;52.704;6.536;2023-06-01T06:09:24;13.05;;;3.90;;
58338;SDS011;68636;52.704;6.536;2023-06-01T06:11:51;14.00;;;4.32;;
58338;SDS011;68636;52.704;6.536;2023-06-01T06:14:16;11.57;;;3.63;;
58338;SDS011;68636;52.704;6.536;2023-06-01T06:16:42;10.23;;;3.47;;
58338;SDS011;68636;52.704;6.536;2023-06-01T06:19:08;12.13;;;4.10;;
58338;SDS011;68636;52.704;6.536;2023-06-01T06:21:34;11.70;;;3.40;;
58338;SDS011;68636;52.704;6.536;2023-06-01T06:24:01;11.10;;;4.72;;
58338;SDS011;68636;52.704;6.536;2023-06-01T06:26:27;14.18;;;4.70;;
58338;SDS011;68636;52.704;6.536;2023-06-01T06:28:52;16.75;;;6.78;;
58338;SDS011;68636;52.704;6.536;2023-06-01T06:31:18;10.55;;;4.15;;
58338;SDS011;68636;52.704;6.536;2023-06-01T06:33:45;15.50;;;5.20;;
58338;SDS011;68636;52.704;6.536;2023-06-01T06:36:10;16.67;;;4.68;;
58338;SDS011;68636;52.704;6.536;2023-06-01T06:38:36;13.90;;;3.70;;
58338;SDS011;68636;52.704;6.536;2023-06-01T06:41:02;16.33;;;4.82;;
58338;SDS011;68636;52.704;6.536;2023-06-01T06:43:28;17.60;;;4.30;;
58338;SDS011;68636;52.704;6.536;2023-06-01T06:45:53;11.45;;;3.80;;
58338;SDS011;68636;52.704;6.536;2023-06-01T06:48:19;13.27;;;4.07;;
58338;SDS011;68636;52.704;6.536;2023-06-01T06:50:45;12.05;;;3.97;;
58338;SDS011;68636;52.704;6.536;2023-06-01T06:53:11;12.75;;;3.40;;
58338;SDS011;68636;52.704;6.536;2023-06-01T06:55:37;10.73;;;3.97;;
58338;SDS011;68636;52.704;6.536;2023-06-01T06:58:02;15.43;;;3.80;;
58338;SDS011;68636;52.704;6.536;2023-06-01T07:00:28;11.85;;;3.70;;
58338;SDS011;68636;52.704;6.536;2023-06-01T07:02:54;14.77;;;4.70;;
58338;SDS011;68636;52.704;6.536;2023-06-01T07:05:21;12.07;;;3.92;;
58338;SDS011;68636;52.704;6.536;2023-06-01T07:07:47;12.35;;;3.80;;
58338;SDS011;68636;52.704;6.536;2023-06-01T07:10:13;10.98;;;4.10;;
58338;SDS011;68636;52.704;6.536;2023-06-01T07:12:39;12.15;;;4.60;;
58338;SDS011;68636;52.704;6.536;2023-06-01T07:15:05;11.57;;;3.83;;
58338;SDS011;68636;52.704;6.536;2023-06-01T07:17:31;17.43;;;5.27;;
58338;SDS011;68636;52.704;6.536;2023-06-01T07:19:57;51.35;;;31.95;;
58338;SDS011;68636;52.704;6.536;2023-06-01T07:22:24;9.85;;;3.10;;
58338;SDS011;68636;52.704;6.536;2023-06-01T07:24:50;9.23;;;3.25;;
58338;SDS011;68636;52.704;6.536;2023-06-01T07:27:16;9.23;;;3.00;;
58338;SDS011;68636;52.704;6.536;2023-06-01T07:29:43;11.88;;;3.30;;
58338;SDS011;68636;52.704;6.536;2023-06-01T07:32:09;9.95;;;3.42;;
58338;SDS011;68636;52.704;6.536;2023-06-01T07:34:35;12.25;;;3.60;;
58338;SDS011;68636;52.704;6.536;2023-06-01T07:37:01;10.15;;;3.60;;
58338;SDS011;68636;52.704;6.536;2023-06-01T07:39:28;10.18;;;3.65;;
58338;SDS011;68636;52.704;6.536;2023-06-01T07:41:55;9.60;;;2.97;;
58338;SDS011;68636;52.704;6.536;2023-06-01T07:44:21;11.52;;;3.45;;
58338;SDS011;68636;52.704;6.536;2023-06-01T07:46:48;9.65;;;3.92;;
58338;SDS011;68636;52.704;6.536;2023-06-01T07:49:14;8.98;;;2.92;;
58338;SDS011;68636;52.704;6.536;2023-06-01T07:51:43;13.48;;;4.30;;
58338;SDS011;68636;52.704;6.536;2023-06-01T07:54:09;9.10;;;2.95;;
58338;SDS011;68636;52.704;6.536;2023-06-01T07:56:35;10.43;;;4.00;;
58338;SDS011;68636;52.704;6.536;2023-06-01T07:59:01;12.77;;;3.72;;
58338;SDS011;68636;52.704;6.536;2023-06-01T08:01:27;11.98;;;3.55;;
58338;SDS011;68636;52.704;6.536;2023-06-01T08:03:53;12.02;;;3.20;;
58338;SDS011;68636;52.704;6.536;2023-06-01T08:06:21;8.65;;;3.15;;
58338;SDS011;68636;52.704;6.536;2023-06-01T08:08:48;14.40;;;3.47;;
58338;SDS011;68636;52.704;6.536;2023-06-01T08:11:14;11.10;;;2.42;;
58338;SDS011;68636;52.704;6.536;2023-06-01T08:13:41;9.60;;;3.10;;
58338;SDS011;68636;52.704;6.536;2023-06-01T08:16:10;8.93;;;2.95;;
58338;SDS011;68636;52.704;6.536;2023-06-01T08:18:38;10.90;;;3.13;;
58338;SDS011;68636;52.704;6.536;2023-06-01T08:21:04;7.93;;;2.45;;
58338;SDS011;68636;52.704;6.536;2023-06-01T08:23:30;6.32;;;2.45;;
58338;SDS011;68636;52.704;6.536;2023-06-01T08:25:56;7.70;;;2.67;;
58338;SDS011;68636;52.704;6.536;2023-06-01T08:28:22;9.15;;;2.80;;
58338;SDS011;68636;52.704;6.536;2023-06-01T08:30:48;10.60;;;2.83;;
58338;SDS011;68636;52.704;6.536;2023-06-01T08:33:13;8.20;;;2.35;;
58338;SDS011;68636;52.704;6.536;2023-06-01T08:35:40;8.68;;;2.10;;
58338;SDS011;68636;52.704;6.536;2023-06-01T08:38:06;8.70;;;2.33;;
58338;SDS011;68636;52.704;6.536;2023-06-01T08:40:31;10.25;;;2.28;;
58338;SDS011;68636;52.704;6.536;2023-06-01T08:42:59;7.90;;;2.75;;
58338;SDS011;68636;52.704;6.536;2023-06-01T08:45:40;10.18;;;2.67;;
58338;SDS011;68636;52.704;6.536;2023-06-01T08:48:07;9.95;;;3.30;;
58338;SDS011;68636;52.704;6.536;2023-06-01T08:50:34;13.52;;;2.50;;
58338;SDS011;68636;52.704;6.536;2023-06-01T08:53:00;20.73;;;13.35;;
58338;SDS011;68636;52.704;6.536;2023-06-01T08:55:28;10.18;;;2.60;;
58338;SDS011;68636;52.704;6.536;2023-06-01T08:57:54;11.98;;;2.80;;
58338;SDS011;68636;52.704;6.536;2023-06-01T09:02:48;5.88;;;2.03;;
58338;SDS011;68636;52.704;6.536;2023-06-01T09:05:14;7.30;;;2.35;;
58338;SDS011;68636;52.704;6.536;2023-06-01T09:07:42;9.15;;;2.08;;
58338;SDS011;68636;52.704;6.536;2023-06-01T09:10:08;10.10;;;2.72;;
58338;SDS011;68636;52.704;6.536;2023-06-01T09:12:34;5.78;;;1.60;;
58338;SDS011;68636;52.704;6.536;2023-06-01T09:17:38;9.68;;;2.58;;
58338;SDS011;68636;52.704;6.536;2023-06-01T09:20:05;8.02;;;2.00;;
58338;SDS011;68636;52.704;6.536;2023-06-01T09:22:43;10.88;;;2.05;;
58338;SDS011;68636;52.704;6.536;2023-06-01T09:25:10;7.47;;;1.98;;
58338;SDS011;68636;52.704;6.536;2023-06-01T09:27:48;4.82;;;1.48;;
58338;SDS011;68636;52.704;6.536;2023-06-01T09:30:16;5.15;;;1.35;;
58338;SDS011;68636;52.704;6.536;2023-06-01T09:32:43;3.35;;;0.90;;
58338;SDS011;68636;52.704;6.536;2023-06-01T09:35:13;4.80;;;1.00;;
58338;SDS011;68636;52.704;6.536;2023-06-01T09:37:39;3.13;;;1.00;;
58338;SDS011;68636;52.704;6.536;2023-06-01T09:40:21;6.65;;;1.05;;
58338;SDS011;68636;52.704;6.536;2023-06-01T09:42:46;4.63;;;1.40;;
58338;SDS011;68636;52.704;6.536;2023-06-01T09:47:45;4.47;;;0.73;;
58338;SDS011;68636;52.704;6.536;2023-06-01T09:50:13;3.58;;;0.90;;
58338;SDS011;68636;52.704;6.536;2023-06-01T09:52:59;3.13;;;0.73;;
58338;SDS011;68636;52.704;6.536;2023-06-01T09:55:25;4.60;;;0.90;;
58338;SDS011;68636;52.704;6.536;2023-06-01T09:57:51;7.00;;;1.33;;
58338;SDS011;68636;52.704;6.536;2023-06-01T10:00:23;3.83;;;0.80;;
58338;SDS011;68636;52.704;6.536;2023-06-01T10:02:50;3.17;;;0.80;;
58338;SDS011;68636;52.704;6.536;2023-06-01T10:05:17;7.20;;;1.15;;
58338;SDS011;68636;52.704;6.536;2023-06-01T10:07:43;3.85;;;0.98;;
58338;SDS011;68636;52.704;6.536;2023-06-01T10:10:12;4.82;;;1.10;;
58338;SDS011;68636;52.704;6.536;2023-06-01T10:12:40;3.70;;;1.00;;
58338;SDS011;68636;52.704;6.536;2023-06-01T10:15:06;2.33;;;0.75;;
58338;SDS011;68636;52.704;6.536;2023-06-01T10:17:34;3.08;;;0.88;;
58338;SDS011;68636;52.704;6.536;2023-06-01T10:20:03;2.25;;;0.50;;
58338;SDS011;68636;52.704;6.536;2023-06-01T10:22:30;2.70;;;0.50;;
58338;SDS011;68636;52.704;6.536;2023-06-01T10:24:56;5.37;;;0.60;;
58338;SDS011;68636;52.704;6.536;2023-06-01T10:27:42;2.17;;;0.40;;
58338;SDS011;68636;52.704;6.536;2023-06-01T10:30:17;2.15;;;0.55;;
58338;SDS011;68636;52.704;6.536;2023-06-01T10:32:44;3.03;;;0.57;;
58338;SDS011;68636;52.704;6.536;2023-06-01T10:40:38;4.47;;;0.90;;
58338;SDS011;68636;52.704;6.536;2023-06-01T10:43:05;6.53;;;1.40;;
58338;SDS011;68636;52.704;6.536;2023-06-01T10:48:02;5.22;;;1.50;;
58338;SDS011;68636;52.704;6.536;2023-06-01T10:50:30;8.80;;;2.45;;
58338;SDS011;68636;52.704;6.536;2023-06-01T10:52:56;9.33;;;2.07;;
58338;SDS011;68636;52.704;6.536;2023-06-01T10:55:42;10.77;;;2.45;;
58338;SDS011;68636;52.704;6.536;2023-06-01T10:58:20;9.88;;;2.70;;
58338;SDS011;68636;52.704;6.536;2023-06-01T11:00:52;11.82;;;2.83;;
58338;SDS011;68636;52.704;6.536;2023-06-01T11:03:41;7.88;;;2.50;;
58338;SDS011;68636;52.704;6.536;2023-06-01T11:06:22;7.72;;;2.45;;
58338;SDS011;68636;52.704;6.536;2023-06-01T11:08:58;9.88;;;2.70;;
58338;SDS011;68636;52.704;6.536;2023-06-01T11:14:26;7.07;;;2.13;;
58338;SDS011;68636;52.704;6.536;2023-06-01T11:16:55;8.50;;;2.70;;
58338;SDS011;68636;52.704;6.536;2023-06-01T11:19:43;9.55;;;2.38;;
58338;SDS011;68636;52.704;6.536;2023-06-01T11:22:09;10.00;;;2.80;;
58338;SDS011;68636;52.704;6.536;2023-06-01T11:24:37;7.03;;;2.22;;
58338;SDS011;68636;52.704;6.536;2023-06-01T11:27:06;8.27;;;2.38;;
58338;SDS011;68636;52.704;6.536;2023-06-01T11:29:35;9.50;;;2.33;;
58338;SDS011;68636;52.704;6.536;2023-06-01T11:32:02;12.27;;;2.25;;
58338;SDS011;68636;52.704;6.536;2023-06-01T11:34:39;6.85;;;2.20;;
58338;SDS011;68636;52.704;6.536;2023-06-01T11:37:13;7.80;;;2.53;;
58338;SDS011;68636;52.704;6.536;2023-06-01T11:39:43;9.18;;;2.70;;
58338;SDS011;68636;52.704;6.536;2023-06-01T11:44:44;10.95;;;2.22;;
58338;SDS011;68636;52.704;6.536;2023-06-01T11:47:14;11.00;;;2.55;;
58338;SDS011;68636;52.704;6.536;2023-06-01T11:49:49;9.32;;;2.20;;
58338;SDS011;68636;52.704;6.536;2023-06-01T11:52:19;14.18;;;2.97;;
58338;SDS011;68636;52.704;6.536;2023-06-01T11:54:46;11.20;;;2.33;;
58338;SDS011;68636;52.704;6.536;2023-06-01T11:57:12;8.32;;;2.42;;
58338;SDS011;68636;52.704;6.536;2023-06-01T11:59:49;8.32;;;2.00;;
58338;SDS011;68636;52.704;6.536;2023-06-01T12:02:22;9.23;;;2.30;;
58338;SDS011;68636;52.704;6.536;2023-06-01T12:05:01;11.00;;;1.92;;
58338;SDS011;68636;52.704;6.536;2023-06-01T12:07:45;7.65;;;2.13;;
58338;SDS011;68636;52.704;6.536;2023-06-01T12:10:14;10.07;;;2.30;;
58338;SDS011;68636;52.704;6.536;2023-06-01T12:12:42;8.20;;;2.50;;
58338;SDS011;68636;52.704;6.536;2023-06-01T12:15:09;9.50;;;2.60;;
58338;SDS011;68636;52.704;6.536;2023-06-01T12:17:47;9.02;;;2.55;;
58338;SDS011;68636;52.704;6.536;2023-06-01T12:20:31;13.07;;;2.70;;
58338;SDS011;68636;52.704;6.536;2023-06-01T12:22:58;10.65;;;2.65;;
58338;SDS011;68636;52.704;6.536;2023-06-01T12:25:28;8.98;;;2.88;;
58338;SDS011;68636;52.704;6.536;2023-06-01T12:28:01;11.65;;;2.15;;
58338;SDS011;68636;52.704;6.536;2023-06-01T12:30:27;9.10;;;2.20;;
58338;SDS011;68636;52.704;6.536;2023-06-01T12:32:52;9.80;;;2.45;;
58338;SDS011;68636;52.704;6.536;2023-06-01T12:35:18;9.52;;;2.08;;
58338;SDS011;68636;52.704;6.536;2023-06-01T12:38:09;9.20;;;2.05;;
58338;SDS011;68636;52.704;6.536;2023-06-01T12:40:38;13.52;;;2.10;;
58338;SDS011;68636;52.704;6.536;2023-06-01T12:43:04;11.93;;;2.10;;
58338;SDS011;68636;52.704;6.536;2023-06-01T12:45:36;8.18;;;2.08;;
58338;SDS011;68636;52.704;6.536;2023-06-01T12:48:03;9.70;;;2.00;;
58338;SDS011;68636;52.704;6.536;2023-06-01T12:52:55;10.80;;;2.50;;
58338;SDS011;68636;52.704;6.536;2023-06-01T12:55:21;9.52;;;1.92;;
58338;SDS011;68636;52.704;6.536;2023-06-01T12:57:53;9.98;;;2.25;;
58338;SDS011;68636;52.704;6.536;2023-06-01T13:00:20;9.65;;;2.15;;
58338;SDS011;68636;52.704;6.536;2023-06-01T13:02:47;7.97;;;2.17;;
58338;SDS011;68636;52.704;6.536;2023-06-01T13:05:18;7.30;;;2.10;;
58338;SDS011;68636;52.704;6.536;2023-06-01T13:07:44;9.82;;;2.40;;
58338;SDS011;68636;52.704;6.536;2023-06-01T13:10:11;6.13;;;2.30;;
58338;SDS011;68636;52.704;6.536;2023-06-01T13:12:37;11.13;;;2.45;;
58338;SDS011;68636;52.704;6.536;2023-06-01T13:15:03;8.32;;;2.65;;
58338;SDS011;68636;52.704;6.536;2023-06-01T13:17:29;8.17;;;2.20;;
58338;SDS011;68636;52.704;6.536;2023-06-01T13:19:54;7.03;;;2.53;;
58338;SDS011;68636;52.704;6.536;2023-06-01T13:22:20;9.95;;;2.55;;
58338;SDS011;68636;52.704;6.536;2023-06-01T13:24:47;6.93;;;2.25;;
58338;SDS011;68636;52.704;6.536;2023-06-01T13:27:13;9.35;;;2.20;;
58338;SDS011;68636;52.704;6.536;2023-06-01T13:29:39;6.05;;;2.30;;
58338;SDS011;68636;52.704;6.536;2023-06-01T13:32:05;6.05;;;1.83;;
58338;SDS011;68636;52.704;6.536;2023-06-01T13:34:31;8.40;;;2.03;;
58338;SDS011;68636;52.704;6.536;2023-06-01T13:36:57;11.00;;;2.60;;
58338;SDS011;68636;52.704;6.536;2023-06-01T13:39:23;12.18;;;2.70;;
58338;SDS011;68636;52.704;6.536;2023-06-01T13:41:49;6.57;;;2.13;;
58338;SDS011;68636;52.704;6.536;2023-06-01T13:44:14;10.90;;;2.30;;
58338;SDS011;68636;52.704;6.536;2023-06-01T13:46:42;6.57;;;2.20;;
58338;SDS011;68636;52.704;6.536;2023-06-01T13:49:09;9.77;;;2.53;;
58338;SDS011;68636;52.704;6.536;2023-06-01T13:51:35;10.50;;;2.97;;
58338;SDS011;68636;52.704;6.536;2023-06-01T13:54:03;7.43;;;2.40;;
58338;SDS011;68636;52.704;6.536;2023-06-01T13:56:29;8.30;;;2.40;;
58338;SDS011;68636;52.704;6.536;2023-06-01T13:58:55;8.45;;;1.88;;
58338;SDS011;68636;52.704;6.536;2023-06-01T14:01:21;8.40;;;2.50;;
58338;SDS011;68636;52.704;6.536;2023-06-01T14:03:47;9.77;;;2.45;;
58338;SDS011;68636;52.704;6.536;2023-06-01T14:06:12;9.57;;;2.30;;
58338;SDS011;68636;52.704;6.536;2023-06-01T14:08:38;10.02;;;2.80;;
58338;SDS011;68636;52.704;6.536;2023-06-01T14:11:04;10.98;;;2.80;;
58338;SDS011;68636;52.704;6.536;2023-06-01T14:13:30;10.80;;;2.47;;
58338;SDS011;68636;52.704;6.536;2023-06-01T14:15:56;9.02;;;2.42;;
58338;SDS011;68636;52.704;6.536;2023-06-01T14:18:22;9.35;;;2.80;;
58338;SDS011;68636;52.704;6.536;2023-06-01T14:20:47;6.60;;;2.58;;
58338;SDS011;68636;52.704;6.536;2023-06-01T14:23:13;11.38;;;2.60;;
58338;SDS011;68636;52.704;6.536;2023-06-01T14:25:40;6.57;;;1.92;;
58338;SDS011;68636;52.704;6.536;2023-06-01T14:28:06;11.98;;;2.50;;
58338;SDS011;68636;52.704;6.536;2023-06-01T14:30:32;14.63;;;2.78;;
58338;SDS011;68636;52.704;6.536;2023-06-01T14:32:57;7.00;;;2.10;;
58338;SDS011;68636;52.704;6.536;2023-06-01T14:35:23;10.23;;;2.63;;
58338;SDS011;68636;52.704;6.536;2023-06-01T14:37:51;10.07;;;2.65;;
58338;SDS011;68636;52.704;6.536;2023-06-01T14:40:17;7.88;;;2.50;;
58338;SDS011;68636;52.704;6.536;2023-06-01T14:42:43;8.13;;;2.45;;
58338;SDS011;68636;52.704;6.536;2023-06-01T14:45:09;7.50;;;2.30;;
58338;SDS011;68636;52.704;6.536;2023-06-01T14:47:36;11.52;;;2.35;;
58338;SDS011;68636;52.704;6.536;2023-06-01T14:50:02;9.53;;;2.60;;
58338;SDS011;68636;52.704;6.536;2023-06-01T14:52:28;7.38;;;2.20;;
58338;SDS011;68636;52.704;6.536;2023-06-01T14:54:55;11.02;;;2.58;;
58338;SDS011;68636;52.704;6.536;2023-06-01T14:57:21;10.02;;;2.95;;
58338;SDS011;68636;52.704;6.536;2023-06-01T14:59:46;9.15;;;2.47;;
58338;SDS011;68636;52.704;6.536;2023-06-01T15:02:12;7.78;;;2.50;;
58338;SDS011;68636;52.704;6.536;2023-06-01T15:04:38;8.90;;;2.50;;
58338;SDS011;68636;52.704;6.536;2023-06-01T15:07:04;13.30;;;3.10;;
58338;SDS011;68636;52.704;6.536;2023-06-01T15:09:30;6.85;;;2.50;;
58338;SDS011;68636;52.704;6.536;2023-06-01T15:11:56;9.52;;;2.20;;
58338;SDS011;68636;52.704;6.536;2023-06-01T15:14:21;9.35;;;2.90;;
58338;SDS011;68636;52.704;6.536;2023-06-01T15:16:47;11.30;;;2.58;;
58338;SDS011;68636;52.704;6.536;2023-06-01T15:19:13;11.05;;;2.40;;
58338;SDS011;68636;52.704;6.536;2023-06-01T15:21:39;7.57;;;2.20;;
58338;SDS011;68636;52.704;6.536;2023-06-01T15:24:04;5.70;;;2.20;;
58338;SDS011;68636;52.704;6.536;2023-06-01T15:26:30;9.23;;;2.45;;